createdAt,value
2023-01-20T00:00:22.883Z,-0.07
2023-01-20T00:02:52.311Z,-0.07
2023-01-20T00:05:21.310Z,-0.04
2023-01-20T00:07:51.693Z,-0.02
2023-01-20T00:10:23.443Z,0.00
2023-01-20T00:12:53.831Z,0.01
2023-01-20T00:15:23.389Z,0.03
2023-01-20T00:17:52.263Z,0.00
2023-01-20T00:20:22.130Z,0.03
2023-01-20T00:22:53.086Z,-0.02
2023-01-20T00:25:23.203Z,-0.01
2023-01-20T00:27:53.968Z,-0.03
2023-01-20T00:30:23.566Z,-0.04
2023-01-20T00:32:53.495Z,0.00
2023-01-20T00:35:22.401Z,0.03
2023-01-20T00:37:53.523Z,0.04
2023-01-20T00:40:24.342Z,0.05
2023-01-20T00:42:53.846Z,0.05
2023-01-20T00:45:24.535Z,0.05
2023-01-20T00:47:54.031Z,0.06
2023-01-20T00:50:23.560Z,0.05
2023-01-20T00:52:52.987Z,0.03
2023-01-20T00:55:24.343Z,-0.01
2023-01-20T00:57:53.144Z,-0.03
2023-01-20T01:00:24.418Z,-0.11
2023-01-20T01:02:55.029Z,-0.14
2023-01-20T01:05:25.358Z,-0.15
2023-01-20T01:07:55.333Z,-0.20
2023-01-20T01:10:26.783Z,-0.22
2023-01-20T01:12:56.212Z,-0.28
2023-01-20T01:15:25.227Z,-0.28
2023-01-20T01:17:55.531Z,-0.29
2023-01-20T01:20:25.316Z,-0.25
2023-01-20T01:22:55.360Z,-0.29
2023-01-20T01:25:25.963Z,-0.31
2023-01-20T01:27:54.858Z,-0.33
2023-01-20T01:30:25.186Z,-0.38
2023-01-20T01:32:55.216Z,-0.38
2023-01-20T01:35:24.696Z,-0.42
2023-01-20T01:37:55.264Z,-0.42
2023-01-20T01:40:26.195Z,-0.47
2023-01-20T01:42:55.592Z,-0.52
2023-01-20T01:45:30.552Z,-0.53
2023-01-20T01:48:11.092Z,-0.58
2023-01-20T01:50:46.639Z,-0.56
2023-01-20T01:53:17.396Z,-0.62
2023-01-20T01:55:56.053Z,-0.68
2023-01-20T01:58:34.029Z,-0.70
2023-01-20T02:01:03.483Z,-0.76
2023-01-20T02:03:43.457Z,-0.77
2023-01-20T02:06:14.875Z,-0.76
2023-01-20T02:08:45.215Z,-0.74
2023-01-20T02:11:16.520Z,-0.77
2023-01-20T02:13:47.091Z,-0.77
2023-01-20T02:16:25.377Z,-0.77
2023-01-20T02:19:15.308Z,-0.82
2023-01-20T02:22:16.252Z,-0.86
2023-01-20T02:25:25.334Z,-0.96
2023-01-20T02:28:44.547Z,-1.03
2023-01-20T02:31:58.763Z,-1.00
2023-01-20T02:34:34.089Z,-1.02
2023-01-20T02:37:15.186Z,-1.01
2023-01-20T02:39:58.631Z,-1.04
2023-01-20T02:42:40.696Z,-1.07
2023-01-20T02:45:20.952Z,-1.08
2023-01-20T02:47:59.101Z,-1.09
2023-01-20T02:50:41.355Z,-1.09
2023-01-20T02:53:16.528Z,-1.19
2023-01-20T02:55:50.561Z,-1.20
2023-01-20T02:58:28.645Z,-1.16
2023-01-20T03:01:03.640Z,-1.19
2023-01-20T03:03:39.742Z,-1.22
2023-01-20T03:06:17.874Z,-1.29
2023-01-20T03:08:53.448Z,-1.30
2023-01-20T03:11:22.913Z,-1.29
2023-01-20T03:13:59.370Z,-1.30
2023-01-20T03:16:31.191Z,-1.33
2023-01-20T03:19:01.499Z,-1.40
2023-01-20T03:21:34.717Z,-1.40
2023-01-20T03:24:05.994Z,-1.38
2023-01-20T03:26:35.334Z,-1.39
2023-01-20T03:29:09.961Z,-1.42
2023-01-20T03:31:44.288Z,-1.43
2023-01-20T03:34:19.820Z,-1.43
2023-01-20T03:36:53.944Z,-1.48
2023-01-20T03:39:24.594Z,-1.52
2023-01-20T03:42:09.335Z,-1.53
2023-01-20T03:45:01.488Z,-1.55
2023-01-20T03:47:52.985Z,-1.58
2023-01-20T03:50:38.256Z,-1.53
2023-01-20T03:53:27.393Z,-1.50
2023-01-20T03:56:05.647Z,-1.53
2023-01-20T03:58:39.560Z,-1.50
2023-01-20T04:01:18.419Z,-1.50
2023-01-20T04:03:52.735Z,-1.52
2023-01-20T04:06:27.318Z,-1.50
2023-01-20T04:09:04.028Z,-1.51
2023-01-20T04:11:33.973Z,-1.58
2023-01-20T04:14:03.423Z,-1.54
2023-01-20T04:16:33.384Z,-1.58
2023-01-20T04:19:04.098Z,-1.54
2023-01-20T04:21:37.756Z,-1.48
2023-01-20T04:24:16.804Z,-1.47
2023-01-20T04:26:46.295Z,-1.46
2023-01-20T04:29:15.678Z,-1.44
2023-01-20T04:31:45.317Z,-1.46
2023-01-20T04:34:16.424Z,-1.45
2023-01-20T04:36:47.173Z,-1.44
2023-01-20T04:39:19.205Z,-1.45
2023-01-20T04:41:49.360Z,-1.41
2023-01-20T04:44:18.506Z,-1.38
2023-01-20T04:46:48.210Z,-1.39
2023-01-20T04:49:17.202Z,-1.40
2023-01-20T04:51:47.047Z,-1.35
2023-01-20T04:54:18.807Z,-1.34
2023-01-20T04:56:51.758Z,-1.32
2023-01-20T04:59:21.600Z,-1.30
2023-01-20T05:01:52.140Z,-1.29
2023-01-20T05:04:21.529Z,-1.29
2023-01-20T05:06:51.588Z,-1.29
2023-01-20T05:09:22.887Z,-1.28
2023-01-20T05:11:52.371Z,-1.29
2023-01-20T05:14:22.867Z,-1.29
2023-01-20T05:16:52.767Z,-1.30
2023-01-20T05:19:22.198Z,-1.36
2023-01-20T05:21:52.231Z,-1.36
2023-01-20T05:24:22.238Z,-1.41
2023-01-20T05:26:52.603Z,-1.40
2023-01-20T05:29:22.115Z,-1.41
2023-01-20T05:31:51.589Z,-1.43
2023-01-20T05:34:22.539Z,-1.45
2023-01-20T05:36:55.099Z,-1.51
2023-01-20T05:39:26.070Z,-1.50
2023-01-20T05:41:56.254Z,-1.50
2023-01-20T05:44:26.222Z,-1.50
2023-01-20T05:46:55.742Z,-1.51
2023-01-20T05:49:24.691Z,-1.53
2023-01-20T05:51:53.742Z,-1.56
2023-01-20T05:54:24.714Z,-1.66
2023-01-20T05:56:55.394Z,-1.68
2023-01-20T05:59:25.342Z,-1.69
2023-01-20T06:01:55.363Z,-1.78
2023-01-20T06:04:26.601Z,-1.74
2023-01-20T06:06:56.450Z,-1.74
2023-01-20T06:09:27.729Z,-1.81
2023-01-20T06:11:57.265Z,-1.85
2023-01-20T06:14:27.355Z,-1.87
2023-01-20T06:16:57.567Z,-1.89
2023-01-20T06:19:27.115Z,-1.86
2023-01-20T06:21:57.822Z,-1.97
2023-01-20T06:24:29.722Z,-2.01
2023-01-20T06:26:59.243Z,-2.11
2023-01-20T06:29:28.304Z,-2.10
2023-01-20T06:31:59.126Z,-2.11
2023-01-20T06:34:29.930Z,-2.07
2023-01-20T06:36:59.962Z,-2.03
2023-01-20T06:39:31.799Z,-2.03
2023-01-20T06:42:02.356Z,-2.04
2023-01-20T06:44:31.800Z,-2.05
2023-01-20T06:47:02.463Z,-2.03
2023-01-20T06:49:34.126Z,-2.11
2023-01-20T06:52:03.187Z,-2.23
2023-01-20T06:54:34.547Z,-2.23
2023-01-20T06:57:04.568Z,-2.23
2023-01-20T06:59:34.131Z,-2.26
2023-01-20T07:02:04.325Z,-2.24
2023-01-20T07:04:34.475Z,-2.18
2023-01-20T07:07:05.016Z,-2.17
2023-01-20T07:09:35.299Z,-2.25
2023-01-20T07:12:06.057Z,-2.29
2023-01-20T07:14:36.766Z,-2.27
2023-01-20T07:17:07.301Z,-2.28
2023-01-20T07:19:37.400Z,-2.28
2023-01-20T07:22:07.895Z,-2.29
2023-01-20T07:24:39.459Z,-2.26
2023-01-20T07:27:08.904Z,-2.27
2023-01-20T07:29:39.131Z,-2.33
2023-01-20T07:32:08.232Z,-2.31
2023-01-20T07:34:38.773Z,-2.34
2023-01-20T07:37:08.338Z,-2.35
2023-01-20T07:39:39.854Z,-2.34
2023-01-20T07:42:09.581Z,-2.31
2023-01-20T07:44:39.751Z,-2.28
2023-01-20T07:47:09.653Z,-2.26
2023-01-20T07:49:40.256Z,-2.24
2023-01-20T07:52:10.527Z,-2.22
2023-01-20T07:54:40.723Z,-2.19
2023-01-20T07:57:11.637Z,-2.19
2023-01-20T07:59:41.545Z,-2.16
2023-01-20T08:02:12.360Z,-2.14
2023-01-20T08:04:42.279Z,-2.10
2023-01-20T08:07:13.355Z,-2.08
2023-01-20T08:09:44.131Z,-2.07
2023-01-20T08:12:13.965Z,-2.07
2023-01-20T08:14:42.968Z,-2.07
2023-01-20T08:17:11.987Z,-2.03
2023-01-20T08:19:40.936Z,-2.05
2023-01-20T08:22:09.488Z,-2.05
2023-01-20T08:24:39.086Z,-2.05
2023-01-20T08:27:10.637Z,-2.01
2023-01-20T08:29:40.419Z,-2.01
2023-01-20T08:32:11.170Z,-2.02
2023-01-20T08:34:41.540Z,-2.04
2023-01-20T08:37:11.544Z,-2.05
2023-01-20T08:39:40.395Z,-2.02
2023-01-20T08:42:12.338Z,-2.06
2023-01-20T08:44:41.765Z,-1.98
2023-01-20T08:47:11.343Z,-1.95
2023-01-20T08:49:40.747Z,-1.94
2023-01-20T08:52:12.138Z,-1.93
2023-01-20T08:54:42.375Z,-1.92
2023-01-20T08:57:13.577Z,-1.93
2023-01-20T08:59:43.086Z,-1.92
2023-01-20T09:02:12.644Z,-1.89
2023-01-20T09:04:43.000Z,-1.87
2023-01-20T09:07:13.911Z,-1.83
2023-01-20T09:09:44.306Z,-1.81
2023-01-20T09:12:15.327Z,-1.79
2023-01-20T09:14:45.240Z,-1.78
2023-01-20T09:17:15.342Z,-1.79
2023-01-20T09:19:45.689Z,-1.77
2023-01-20T09:22:16.618Z,-1.72
2023-01-20T09:24:47.047Z,-1.70
2023-01-20T09:27:18.625Z,-1.65
2023-01-20T09:29:48.364Z,-1.62
2023-01-20T09:32:18.894Z,-1.58
2023-01-20T09:34:49.025Z,-1.55
2023-01-20T09:37:37.167Z,-1.50
2023-01-20T09:40:23.835Z,-1.44
2023-01-20T09:43:30.887Z,-1.44
2023-01-20T09:46:11.906Z,-1.36
2023-01-20T09:49:12.234Z,-1.29
2023-01-20T09:52:14.926Z,-1.23
2023-01-20T09:54:52.203Z,-1.17
2023-01-20T09:57:29.343Z,-1.10
2023-01-20T10:00:08.018Z,-1.01
2023-01-20T10:02:38.833Z,-0.94
2023-01-20T10:05:16.362Z,-0.86
2023-01-20T10:07:56.632Z,-0.78
2023-01-20T10:10:33.774Z,-0.70
2023-01-20T10:13:14.872Z,-0.61
2023-01-20T10:15:53.123Z,-0.53
2023-01-20T10:18:29.068Z,-0.42
2023-01-20T10:21:07.947Z,-0.35
2023-01-20T10:23:44.757Z,-0.25
2023-01-20T10:26:20.285Z,-0.16
2023-01-20T10:28:59.839Z,-0.10
2023-01-20T10:31:35.777Z,-0.04
2023-01-20T10:34:14.273Z,0.01
2023-01-20T10:36:51.371Z,0.05
2023-01-20T10:39:34.617Z,0.10
2023-01-20T10:42:11.718Z,0.15
2023-01-20T10:44:41.221Z,0.19
2023-01-20T10:47:43.210Z,0.24
2023-01-20T10:50:45.137Z,0.31
2023-01-20T10:53:37.512Z,0.33
2023-01-20T10:56:27.003Z,0.39
2023-01-20T10:58:58.422Z,0.42
2023-01-20T11:01:29.032Z,0.48
2023-01-20T11:03:59.887Z,0.49
2023-01-20T11:06:29.182Z,0.56
2023-01-20T11:09:09.524Z,0.58
2023-01-20T11:11:40.403Z,0.64
2023-01-20T11:14:11.180Z,0.69
2023-01-20T11:16:45.330Z,0.76
2023-01-20T11:19:16.055Z,0.77
2023-01-20T11:21:46.719Z,0.86
2023-01-20T11:24:43.297Z,0.92
2023-01-20T11:27:20.523Z,0.89
2023-01-20T11:29:56.928Z,0.93
2023-01-20T11:32:36.436Z,0.96
2023-01-20T11:35:25.621Z,0.97
2023-01-20T11:37:56.118Z,1.04
2023-01-20T11:40:28.751Z,1.01
2023-01-20T11:42:59.234Z,1.05
2023-01-20T11:45:35.205Z,1.06
2023-01-20T11:48:18.492Z,1.09
2023-01-20T11:50:58.205Z,1.13
2023-01-20T11:53:31.736Z,1.15
2023-01-20T11:56:03.690Z,1.21
2023-01-20T11:58:50.398Z,1.23
2023-01-20T12:01:27.443Z,1.22
2023-01-20T12:05:10.176Z,1.21
2023-01-20T12:07:48.082Z,1.20
2023-01-20T12:10:25.543Z,1.23
2023-01-20T12:13:02.452Z,1.24
2023-01-20T12:15:36.431Z,1.27
2023-01-20T12:18:17.231Z,1.28
2023-01-20T12:20:55.715Z,1.31
2023-01-20T12:23:46.204Z,1.30
2023-01-20T12:26:18.946Z,1.32
2023-01-20T12:29:06.485Z,1.32
2023-01-20T12:31:38.040Z,1.28
2023-01-20T12:34:15.182Z,1.22
2023-01-20T12:37:14.186Z,1.25
2023-01-20T12:40:21.437Z,1.26
2023-01-20T12:43:22.729Z,1.13
2023-01-20T12:46:15.247Z,1.11
2023-01-20T12:49:02.239Z,1.14
2023-01-20T12:51:52.340Z,1.18
2023-01-20T12:54:59.163Z,1.15
2023-01-20T12:58:20.030Z,1.20
2023-01-20T13:01:28.889Z,1.17
2023-01-20T13:04:46.355Z,1.14
2023-01-20T13:07:57.483Z,1.07
2023-01-20T13:10:52.557Z,1.10
2023-01-20T13:13:56.359Z,1.16
2023-01-20T13:16:37.424Z,1.15
2023-01-20T13:19:16.523Z,1.13
2023-01-20T13:21:56.665Z,1.03
2023-01-20T13:24:38.214Z,1.05
2023-01-20T13:27:08.497Z,1.09
2023-01-20T13:29:56.788Z,1.10
2023-01-20T13:32:38.508Z,1.09
2023-01-20T13:35:50.547Z,1.06
2023-01-20T13:38:24.295Z,1.02
2023-01-20T13:41:06.636Z,1.08
2023-01-20T13:44:00.775Z,1.07
2023-01-20T13:46:51.623Z,1.09
2023-01-20T13:49:28.653Z,1.12
2023-01-20T13:51:57.959Z,1.09
2023-01-20T13:54:46.168Z,1.05
2023-01-20T13:57:49.159Z,1.04
2023-01-20T14:00:21.075Z,1.05
2023-01-20T14:02:53.200Z,1.11
2023-01-20T14:05:32.617Z,1.16
2023-01-20T14:08:02.279Z,1.14
2023-01-20T14:10:32.168Z,1.09
2023-01-20T14:13:03.017Z,1.14
2023-01-20T14:15:39.248Z,1.16
2023-01-20T14:18:19.627Z,1.19
2023-01-20T14:21:05.678Z,1.15
2023-01-20T14:23:59.200Z,1.13
2023-01-20T14:26:30.855Z,1.15
2023-01-20T14:29:03.759Z,1.15
2023-01-20T14:31:38.139Z,1.17
2023-01-20T14:34:29.776Z,1.15
2023-01-20T14:37:03.643Z,1.14
2023-01-20T14:39:33.710Z,1.15
2023-01-20T14:42:04.537Z,1.16
2023-01-20T14:44:34.446Z,1.16
2023-01-20T14:47:06.065Z,1.17
2023-01-20T14:49:39.846Z,1.15
2023-01-20T14:52:15.188Z,1.14
2023-01-20T14:54:45.955Z,1.10
2023-01-20T14:57:29.392Z,1.08
2023-01-20T15:00:16.948Z,1.10
2023-01-20T15:03:05.379Z,1.09
2023-01-20T15:05:54.306Z,1.11
2023-01-20T15:08:26.735Z,1.12
2023-01-20T15:11:46.576Z,1.14
2023-01-20T15:14:16.604Z,1.13
2023-01-20T15:17:10.711Z,1.14
2023-01-20T15:19:46.770Z,1.12
2023-01-20T15:22:25.096Z,1.12
2023-01-20T15:24:55.572Z,1.13
2023-01-20T15:27:34.210Z,1.14
2023-01-20T15:30:21.607Z,1.14
2023-01-20T15:32:53.804Z,1.15
2023-01-20T15:35:27.626Z,1.16
2023-01-20T15:37:58.486Z,1.16
2023-01-20T15:40:29.076Z,1.16
2023-01-20T15:42:58.582Z,1.18
2023-01-20T15:45:27.528Z,1.17
2023-01-20T15:47:58.539Z,1.19
2023-01-20T15:50:32.024Z,1.19
2023-01-20T15:53:04.085Z,1.18
2023-01-20T15:55:32.561Z,1.18
2023-01-20T15:58:02.622Z,1.18
2023-01-20T16:00:33.992Z,1.18
2023-01-20T16:03:10.160Z,1.20
2023-01-20T16:05:39.229Z,1.21
2023-01-20T16:08:18.326Z,1.20
2023-01-20T16:10:47.751Z,1.20
2023-01-20T16:13:18.263Z,1.19
2023-01-20T16:15:47.162Z,1.19
2023-01-20T16:18:19.978Z,1.19
2023-01-20T16:20:51.408Z,1.21
2023-01-20T16:23:22.751Z,1.20
2023-01-20T16:25:52.226Z,1.21
2023-01-20T16:28:24.251Z,1.23
2023-01-20T16:30:54.783Z,1.23
2023-01-20T16:33:26.965Z,1.21
2023-01-20T16:35:57.683Z,1.23
2023-01-20T16:38:27.606Z,1.23
2023-01-20T16:41:05.377Z,1.25
2023-01-20T16:43:34.808Z,1.25
2023-01-20T16:46:04.999Z,1.25
2023-01-20T16:48:33.400Z,1.27
2023-01-20T16:51:05.536Z,1.27
2023-01-20T16:53:37.558Z,1.27
2023-01-20T16:56:10.800Z,1.27
2023-01-20T16:58:39.741Z,1.27
2023-01-20T17:01:12.709Z,1.28
2023-01-20T17:03:42.336Z,1.28
2023-01-20T17:06:17.339Z,1.28
2023-01-20T17:08:49.921Z,1.29
2023-01-20T17:11:19.590Z,1.28
2023-01-20T17:13:49.834Z,1.29
2023-01-20T17:16:20.791Z,1.29
2023-01-20T17:18:52.334Z,1.30
2023-01-20T17:21:23.478Z,1.31
2023-01-20T17:23:55.527Z,1.33
2023-01-20T17:26:26.600Z,1.34
2023-01-20T17:28:58.394Z,1.35
2023-01-20T17:31:28.841Z,1.33
2023-01-20T17:33:58.415Z,1.35
2023-01-20T17:36:30.102Z,1.36
2023-01-20T17:39:00.268Z,1.35
2023-01-20T17:41:30.253Z,1.35
2023-01-20T17:43:59.758Z,1.36
2023-01-20T17:46:30.330Z,1.36
2023-01-20T17:49:00.881Z,1.36
2023-01-20T17:51:32.678Z,1.39
2023-01-20T17:54:04.329Z,1.38
2023-01-20T17:56:33.505Z,1.40
2023-01-20T17:59:03.260Z,1.38
2023-01-20T18:01:34.395Z,1.39
2023-01-20T18:04:05.753Z,1.39
2023-01-20T18:06:36.085Z,1.39
2023-01-20T18:09:08.408Z,1.40
2023-01-20T18:11:39.792Z,1.39
2023-01-20T18:14:08.645Z,1.41
2023-01-20T18:16:41.016Z,1.42
2023-01-20T18:19:13.936Z,1.41
2023-01-20T18:21:45.516Z,1.41
2023-01-20T18:24:17.119Z,1.41
2023-01-20T18:26:46.733Z,1.40
2023-01-20T18:29:17.751Z,1.40
2023-01-20T18:31:47.848Z,1.41
2023-01-20T18:34:17.272Z,1.39
2023-01-20T18:36:49.291Z,1.40
2023-01-20T18:39:21.653Z,1.40
2023-01-20T18:41:52.736Z,1.40
2023-01-20T18:44:23.378Z,1.40
2023-01-20T18:46:53.399Z,1.41
2023-01-20T18:49:23.766Z,1.40
2023-01-20T18:51:54.525Z,1.41
2023-01-20T18:54:25.891Z,1.41
2023-01-20T18:56:54.391Z,1.42
2023-01-20T18:59:24.175Z,1.41
2023-01-20T19:01:55.487Z,1.40
2023-01-20T19:04:25.530Z,1.40
2023-01-20T19:06:56.026Z,1.43
2023-01-20T19:09:28.415Z,1.42
2023-01-20T19:11:57.626Z,1.39
2023-01-20T19:14:27.787Z,1.39
2023-01-20T19:16:56.786Z,1.36
2023-01-20T19:19:26.593Z,1.36
2023-01-20T19:21:55.655Z,1.38
2023-01-20T19:24:29.460Z,1.39
2023-01-20T19:27:01.027Z,1.41
2023-01-20T19:29:30.960Z,1.38
2023-01-20T19:32:00.152Z,1.39
2023-01-20T19:34:30.589Z,1.41
2023-01-20T19:37:01.214Z,1.41
2023-01-20T19:39:32.380Z,1.39
2023-01-20T19:42:02.189Z,1.39
2023-01-20T19:44:31.991Z,1.37
2023-01-20T19:47:04.306Z,1.38
2023-01-20T19:49:34.083Z,1.38
2023-01-20T19:52:03.509Z,1.38
2023-01-20T19:54:33.664Z,1.38
2023-01-20T19:57:03.549Z,1.40
2023-01-20T19:59:32.713Z,1.40
2023-01-20T20:02:01.703Z,1.38
2023-01-20T20:04:31.267Z,1.40
2023-01-20T20:07:01.248Z,1.41
2023-01-20T20:09:30.958Z,1.40
2023-01-20T20:12:06.697Z,1.39
2023-01-20T20:14:36.534Z,1.42
2023-01-20T20:17:05.985Z,1.41
2023-01-20T20:19:35.703Z,1.39
2023-01-20T20:22:05.977Z,1.37
2023-01-20T20:24:36.128Z,1.36
2023-01-20T20:27:07.672Z,1.37
2023-01-20T20:29:36.524Z,1.36
2023-01-20T20:32:06.671Z,1.35
2023-01-20T20:34:36.319Z,1.39
2023-01-20T20:37:05.478Z,1.39
2023-01-20T20:39:36.898Z,1.37
2023-01-20T20:42:08.602Z,1.34
2023-01-20T20:44:38.192Z,1.32
2023-01-20T20:47:07.205Z,1.30
2023-01-20T20:49:36.652Z,1.32
2023-01-20T20:52:07.337Z,1.35
2023-01-20T20:54:36.396Z,1.33
2023-01-20T20:57:08.213Z,1.32
2023-01-20T20:59:50.293Z,1.31
2023-01-20T21:02:27.003Z,1.34
2023-01-20T21:04:56.645Z,1.39
2023-01-20T21:07:26.023Z,1.40
2023-01-20T21:09:55.803Z,1.38
2023-01-20T21:12:26.770Z,1.36
2023-01-20T21:14:56.724Z,1.35
2023-01-20T21:17:26.688Z,1.34
2023-01-20T21:19:56.723Z,1.35
2023-01-20T21:22:26.941Z,1.35
2023-01-20T21:24:57.497Z,1.37
2023-01-20T21:27:28.875Z,1.36
2023-01-20T21:29:59.420Z,1.38
2023-01-20T21:32:28.868Z,1.40
2023-01-20T21:34:59.020Z,1.44
2023-01-20T21:37:27.838Z,1.45
2023-01-20T21:39:56.653Z,1.47
2023-01-20T21:42:27.671Z,1.49
2023-01-20T21:44:57.219Z,1.52
2023-01-20T21:47:27.193Z,1.50
2023-01-20T21:50:15.328Z,1.53
2023-01-20T21:52:45.543Z,1.52
2023-01-20T21:55:19.055Z,1.52
2023-01-20T21:57:51.539Z,1.53
2023-01-20T22:00:22.689Z,1.53
2023-01-20T22:02:51.894Z,1.57
2023-01-20T22:05:22.522Z,1.58
2023-01-20T22:07:53.627Z,1.57
2023-01-20T22:10:24.228Z,1.57
2023-01-20T22:12:56.637Z,1.56
2023-01-20T22:15:27.213Z,1.56
2023-01-20T22:17:57.813Z,1.57
2023-01-20T22:20:29.475Z,1.58
2023-01-20T22:22:59.387Z,1.60
2023-01-20T22:25:28.812Z,1.62
2023-01-20T22:27:59.925Z,1.60
2023-01-20T22:30:29.972Z,1.60
2023-01-20T22:33:00.123Z,1.60
2023-01-20T22:35:31.401Z,1.58
2023-01-20T22:38:01.794Z,1.60
2023-01-20T22:40:34.192Z,1.59
2023-01-20T22:43:04.991Z,1.58
2023-01-20T22:45:34.713Z,1.57
2023-01-20T22:48:04.244Z,1.58
2023-01-20T22:50:36.440Z,1.55
2023-01-20T22:53:06.095Z,1.55
2023-01-20T22:55:36.172Z,1.54
2023-01-20T22:58:08.048Z,1.55
2023-01-20T23:00:38.197Z,1.56
2023-01-20T23:03:06.955Z,1.55
2023-01-20T23:05:36.036Z,1.56
2023-01-20T23:08:05.249Z,1.55
2023-01-20T23:10:47.747Z,1.55
2023-01-20T23:13:19.297Z,1.56
2023-01-20T23:15:48.857Z,1.57
2023-01-20T23:18:17.886Z,1.58
2023-01-20T23:20:50.096Z,1.57
2023-01-20T23:23:20.178Z,1.57
2023-01-20T23:25:49.474Z,1.56
2023-01-20T23:28:20.489Z,1.52
2023-01-20T23:30:50.006Z,1.49
2023-01-20T23:33:19.694Z,1.48
2023-01-20T23:35:49.827Z,1.47
2023-01-20T23:38:19.369Z,1.47
2023-01-20T23:40:50.403Z,1.48
2023-01-20T23:43:20.854Z,1.48
2023-01-20T23:45:49.993Z,1.46
2023-01-20T23:48:19.740Z,1.46
2023-01-20T23:50:49.685Z,1.46
2023-01-20T23:53:19.121Z,1.43
2023-01-20T23:55:48.700Z,1.43
2023-01-20T23:58:19.877Z,1.42
